Time;durP1;ratioP1;P1;durP2;ratioP2;P2;SDS_P1;SDS_P2;PMS_P1;PMS_P2;Temp;Humidity;BMP_temperature;BMP_pressure;BME280_temperature;BME280_humidity;BME280_pressure;Samples;Min_cycle;Max_cycle;Signal;HPM_P1;HPM_P2
2021/03/08 00:00:19;;;;;;;39.70;22.87;;;;;;;;;;5140309;27;20302;-34
2021/03/08 00:03:05;;;;;;;38.53;23.33;;;;;;;;;;5139988;27;20587;-36
2021/03/08 00:05:51;;;;;;;38.20;22.47;;;;;;;;;;5139911;27;20254;-35
2021/03/08 00:08:37;;;;;;;40.80;22.67;;;;;;;;;;5139880;27;20193;-34
2021/03/08 00:11:23;;;;;;;37.57;22.67;;;;;;;;;;5138767;27;20201;-35
2021/03/08 00:14:09;;;;;;;40.90;22.07;;;;;;;;;;5139121;27;20234;-34
2021/03/08 00:16:58;;;;;;;47.77;24.87;;;;;;;;;;5139515;27;20308;-37
2021/03/08 00:19:44;;;;;;;41.70;23.10;;;;;;;;;;5139954;27;20710;-36
2021/03/08 00:22:32;;;;;;;42.90;22.97;;;;;;;;;;5139798;27;20205;-35
2021/03/08 00:25:18;;;;;;;40.57;24.27;;;;;;;;;;5139251;27;20274;-31
2021/03/08 00:28:05;;;;;;;44.00;22.50;;;;;;;;;;5138845;27;20251;-35
2021/03/08 00:30:51;;;;;;;38.63;21.87;;;;;;;;;;5139694;27;20282;-32
2021/03/08 00:33:38;;;;;;;39.60;22.97;;;;;;;;;;5138784;27;20225;-33
2021/03/08 00:36:23;;;;;;;40.43;21.40;;;;;;;;;;5138363;27;20201;-37
2021/03/08 00:39:09;;;;;;;44.73;24.80;;;;;;;;;;5138941;27;20745;-34
2021/03/08 00:41:58;;;;;;;42.23;23.37;;;;;;;;;;5139022;27;20197;-34
2021/03/08 00:44:45;;;;;;;39.73;22.83;;;;;;;;;;5139186;27;20324;-39
2021/03/08 00:47:30;;;;;;;38.10;21.67;;;;;;;;;;5139312;27;20529;-38
2021/03/08 00:50:17;;;;;;;45.27;23.93;;;;;;;;;;5139158;27;20283;-39
2021/03/08 00:53:03;;;;;;;50.20;25.53;;;;;;;;;;5139055;27;20198;-37
2021/03/08 00:55:49;;;;;;;43.83;24.77;;;;;;;;;;5138660;27;20323;-33
2021/03/08 00:58:40;;;;;;;40.37;24.07;;;;;;;;;;5138084;27;20335;-35
2021/03/08 01:01:26;;;;;;;44.07;23.37;;;;;;;;;;5139154;27;20462;-34
2021/03/08 01:04:12;;;;;;;45.60;24.33;;;;;;;;;;5139217;27;20465;-35
2021/03/08 01:06:58;;;;;;;39.83;22.33;;;;;;;;;;5138876;27;20305;-35
2021/03/08 01:09:44;;;;;;;41.67;24.03;;;;;;;;;;5138687;27;20197;-35
2021/03/08 01:12:32;;;;;;;40.33;23.10;;;;;;;;;;5137756;27;20251;-39
2021/03/08 01:15:20;;;;;;;42.27;22.57;;;;;;;;;;5138870;27;20447;-38
2021/03/08 01:18:09;;;;;;;42.03;24.47;;;;;;;;;;5137932;27;20262;-36
2021/03/08 01:20:56;;;;;;;43.00;22.83;;;;;;;;;;5138615;27;20579;-36
2021/03/08 01:23:42;;;;;;;39.63;23.07;;;;;;;;;;5138695;27;20265;-39
2021/03/08 01:26:28;;;;;;;40.60;22.13;;;;;;;;;;5138111;27;20318;-36
2021/03/08 01:29:14;;;;;;;41.60;23.60;;;;;;;;;;5137730;27;20193;-39
2021/03/08 01:31:59;;;;;;;40.60;23.27;;;;;;;;;;5137726;27;20217;-35
2021/03/08 01:34:46;;;;;;;38.90;22.50;;;;;;;;;;5138175;27;20226;-37
2021/03/08 01:37:32;;;;;;;47.60;25.50;;;;;;;;;;5138311;27;20201;-40
2021/03/08 01:40:18;;;;;;;45.10;24.17;;;;;;;;;;5138453;27;20643;-35
2021/03/08 01:43:04;;;;;;;41.07;22.50;;;;;;;;;;5138463;27;20197;-37
2021/03/08 01:45:50;;;;;;;44.97;25.13;;;;;;;;;;5138216;27;20208;-34
2021/03/08 01:48:36;;;;;;;43.63;25.33;;;;;;;;;;5137612;27;20480;-32
2021/03/08 01:51:22;;;;;;;42.20;24.20;;;;;;;;;;5138212;27;20479;-37
2021/03/08 01:54:10;;;;;;;44.70;24.37;;;;;;;;;;5137996;27;20750;-32
2021/03/08 01:56:55;;;;;;;42.03;22.57;;;;;;;;;;5137404;27;20201;-36
2021/03/08 01:59:44;;;;;;;46.83;25.00;;;;;;;;;;5137350;27;20372;-33
2021/03/08 02:02:30;;;;;;;43.67;23.83;;;;;;;;;;5137971;27;20202;-34
2021/03/08 02:05:17;;;;;;;43.60;24.57;;;;;;;;;;5138104;27;20193;-35
2021/03/08 02:08:04;;;;;;;39.47;22.83;;;;;;;;;;5137289;27;20346;-35
2021/03/08 02:10:55;;;;;;;39.60;23.70;;;;;;;;;;5138135;27;20197;-33
2021/03/08 02:13:53;;;;;;;43.30;24.10;;;;;;;;;;5137485;28;20249;-33
2021/03/08 02:16:43;;;;;;;50.33;25.17;;;;;;;;;;5137420;28;20298;-36
2021/03/08 02:19:47;;;;;;;46.23;25.13;;;;;;;;;;5137770;28;20500;-37
2021/03/08 02:22:44;;;;;;;49.03;25.53;;;;;;;;;;5137791;28;20192;-37
2021/03/08 02:25:35;;;;;;;47.50;24.93;;;;;;;;;;5138032;28;20210;-35
2021/03/08 02:28:32;;;;;;;43.97;23.70;;;;;;;;;;5138105;28;20475;-38
2021/03/08 02:31:24;;;;;;;41.43;24.33;;;;;;;;;;5138108;28;20198;-39
2021/03/08 02:34:11;;;;;;;42.10;23.00;;;;;;;;;;5137670;28;20213;-38
2021/03/08 02:37:00;;;;;;;45.63;24.60;;;;;;;;;;5137457;28;20262;-37
2021/03/08 02:39:47;;;;;;;47.30;24.70;;;;;;;;;;5137850;28;20214;-35
2021/03/08 02:42:36;;;;;;;47.37;24.27;;;;;;;;;;5137381;28;20200;-36
2021/03/08 02:45:26;;;;;;;43.83;24.60;;;;;;;;;;5137296;28;20195;-32
2021/03/08 02:48:16;;;;;;;40.63;23.60;;;;;;;;;;5137527;28;20202;-33
2021/03/08 02:51:03;;;;;;;46.47;23.80;;;;;;;;;;5137333;28;20202;-35
2021/03/08 02:53:50;;;;;;;43.67;22.93;;;;;;;;;;5136542;28;20237;-33
2021/03/08 02:56:38;;;;;;;47.23;23.87;;;;;;;;;;5137246;28;20271;-33
2021/03/08 02:59:25;;;;;;;44.60;24.77;;;;;;;;;;5137458;27;20295;-34
2021/03/08 03:02:11;;;;;;;46.13;23.77;;;;;;;;;;5141107;27;20269;-37
2021/03/08 03:04:58;;;;;;;46.37;24.67;;;;;;;;;;5140794;27;20194;-34
2021/03/08 03:07:45;;;;;;;50.80;25.73;;;;;;;;;;5141255;27;20201;-34
2021/03/08 03:10:34;;;;;;;38.73;23.20;;;;;;;;;;5140457;27;20346;-37
2021/03/08 03:13:20;;;;;;;47.20;24.53;;;;;;;;;;5140886;27;20298;-39
2021/03/08 03:16:07;;;;;;;47.40;24.63;;;;;;;;;;5140813;27;20205;-35
2021/03/08 03:18:55;;;;;;;46.07;25.10;;;;;;;;;;5140574;27;20588;-33
2021/03/08 03:21:43;;;;;;;45.07;24.47;;;;;;;;;;5140705;27;20197;-34
2021/03/08 03:24:29;;;;;;;45.67;25.13;;;;;;;;;;5140736;27;20477;-38
2021/03/08 03:27:17;;;;;;;49.43;26.83;;;;;;;;;;5140298;27;20591;-33
2021/03/08 03:30:04;;;;;;;47.80;27.47;;;;;;;;;;5140809;27;20298;-34
2021/03/08 03:32:50;;;;;;;44.93;25.60;;;;;;;;;;5140542;27;20609;-35
2021/03/08 03:35:37;;;;;;;44.20;24.60;;;;;;;;;;5140680;27;20222;-33
2021/03/08 03:38:24;;;;;;;45.33;25.80;;;;;;;;;;5140346;27;20198;-35
2021/03/08 03:41:13;;;;;;;43.77;25.07;;;;;;;;;;5140387;27;20194;-35
2021/03/08 03:44:00;;;;;;;42.97;24.70;;;;;;;;;;5140943;27;20335;-36
2021/03/08 03:46:47;;;;;;;51.80;25.27;;;;;;;;;;5140468;27;20201;-34
2021/03/08 03:49:33;;;;;;;46.83;25.57;;;;;;;;;;5140199;27;20201;-34
2021/03/08 03:52:19;;;;;;;45.90;26.37;;;;;;;;;;5140334;27;20198;-35
2021/03/08 03:55:09;;;;;;;46.17;25.43;;;;;;;;;;5140033;27;20642;-35
2021/03/08 03:58:00;;;;;;;45.17;25.30;;;;;;;;;;5140304;27;20599;-34
2021/03/08 04:00:48;;;;;;;50.73;26.93;;;;;;;;;;5139938;27;20476;-37
2021/03/08 04:03:38;;;;;;;48.57;26.33;;;;;;;;;;5140042;27;20206;-37
2021/03/08 04:06:23;;;;;;;45.77;25.27;;;;;;;;;;5139848;27;20492;-35
2021/03/08 04:09:11;;;;;;;50.90;26.93;;;;;;;;;;5140308;27;20483;-34
2021/03/08 04:11:59;;;;;;;54.63;28.80;;;;;;;;;;5140102;27;20277;-34
2021/03/08 04:14:46;;;;;;;56.40;28.40;;;;;;;;;;5139910;27;20257;-33
2021/03/08 04:17:34;;;;;;;56.20;27.83;;;;;;;;;;5139700;27;20201;-36
2021/03/08 04:20:20;;;;;;;59.90;29.63;;;;;;;;;;5139758;27;20206;-33
2021/03/08 04:23:07;;;;;;;56.73;27.10;;;;;;;;;;5139424;27;20206;-36
2021/03/08 04:25:54;;;;;;;59.23;28.77;;;;;;;;;;5139637;27;20581;-35
2021/03/08 04:28:41;;;;;;;69.47;31.40;;;;;;;;;;5139724;27;20225;-37
2021/03/08 04:31:27;;;;;;;68.07;31.17;;;;;;;;;;5139756;27;20197;-34
2021/03/08 04:34:13;;;;;;;64.27;30.03;;;;;;;;;;5154786;27;20498;-34
2021/03/08 04:37:00;;;;;;;63.23;31.60;;;;;;;;;;5160177;27;20201;-35
2021/03/08 04:39:45;;;;;;;59.77;29.70;;;;;;;;;;5159630;27;20620;-32
2021/03/08 04:42:31;;;;;;;64.23;30.87;;;;;;;;;;5160160;27;20201;-32
2021/03/08 04:45:19;;;;;;;67.03;30.90;;;;;;;;;;5160041;27;20430;-33
2021/03/08 04:48:06;;;;;;;70.03;31.67;;;;;;;;;;5159911;27;20442;-32
2021/03/08 04:50:52;;;;;;;64.87;31.23;;;;;;;;;;5159069;27;20503;-36
2021/03/08 04:53:39;;;;;;;73.17;32.50;;;;;;;;;;5159797;27;20205;-32
2021/03/08 04:56:32;;;;;;;67.67;32.83;;;;;;;;;;5159386;27;20201;-36
2021/03/08 04:59:19;;;;;;;68.37;32.17;;;;;;;;;;5159813;27;20197;-34
2021/03/08 05:02:06;;;;;;;63.97;31.47;;;;;;;;;;5159395;27;20889;-35
2021/03/08 05:04:52;;;;;;;66.27;30.23;;;;;;;;;;5159078;27;20196;-35
2021/03/08 05:07:39;;;;;;;64.43;29.67;;;;;;;;;;5159129;27;20255;-32
2021/03/08 05:10:25;;;;;;;70.80;32.83;;;;;;;;;;5158908;27;20338;-35
2021/03/08 05:13:12;;;;;;;64.50;30.40;;;;;;;;;;5159302;27;20675;-36
2021/03/08 05:16:03;;;;;;;71.10;32.83;;;;;;;;;;5159117;27;20193;-32
2021/03/08 05:18:50;;;;;;;70.60;31.53;;;;;;;;;;5158939;27;20212;-37
2021/03/08 05:21:36;;;;;;;69.43;32.10;;;;;;;;;;5159668;27;20438;-34
2021/03/08 05:24:22;;;;;;;71.50;32.17;;;;;;;;;;5158365;27;20197;-32
2021/03/08 05:27:08;;;;;;;75.57;32.97;;;;;;;;;;5158829;27;20298;-34
2021/03/08 05:29:54;;;;;;;81.13;32.63;;;;;;;;;;5158857;27;20641;-37
2021/03/08 05:32:42;;;;;;;85.37;34.63;;;;;;;;;;5158605;27;20430;-35
2021/03/08 05:35:29;;;;;;;77.97;34.73;;;;;;;;;;5158940;27;20482;-38
2021/03/08 05:38:15;;;;;;;96.63;39.70;;;;;;;;;;5159377;27;20193;-38
2021/03/08 05:41:12;;;;;;;92.03;37.50;;;;;;;;;;5157974;27;20215;-36
2021/03/08 05:43:59;;;;;;;82.87;34.37;;;;;;;;;;5158728;27;20438;-37
2021/03/08 05:46:56;;;;;;;84.93;34.70;;;;;;;;;;5158411;27;20321;-40
2021/03/08 05:50:03;;;;;;;99.97;39.37;;;;;;;;;;5158374;27;20962;-37
2021/03/08 05:53:01;;;;;;;107.07;39.00;;;;;;;;;;5158458;27;20377;-38
2021/03/08 05:55:57;;;;;;;99.90;38.37;;;;;;;;;;5157579;27;20611;-36
2021/03/08 05:58:56;;;;;;;100.00;37.70;;;;;;;;;;5158960;27;20708;-40
2021/03/08 06:02:05;;;;;;;116.53;41.30;;;;;;;;;;5157281;27;20470;-36
2021/03/08 06:05:04;;;;;;;111.00;41.00;;;;;;;;;;5158335;27;20579;-35
2021/03/08 06:08:02;;;;;;;131.47;45.73;;;;;;;;;;5158541;27;20458;-39
2021/03/08 06:10:54;;;;;;;107.50;40.17;;;;;;;;;;5157391;27;20467;-37
2021/03/08 06:13:43;;;;;;;106.30;40.47;;;;;;;;;;5157541;27;20466;-37
2021/03/08 06:16:34;;;;;;;103.40;39.73;;;;;;;;;;5157527;27;20446;-37
2021/03/08 06:19:20;;;;;;;127.30;44.10;;;;;;;;;;5157496;27;20785;-38
2021/03/08 06:22:07;;;;;;;110.43;36.97;;;;;;;;;;5157754;27;20204;-39
2021/03/08 06:24:54;;;;;;;105.77;39.90;;;;;;;;;;5157932;27;20223;-35
2021/03/08 06:27:41;;;;;;;123.27;40.73;;;;;;;;;;5158013;27;20435;-37
2021/03/08 06:30:31;;;;;;;105.03;39.10;;;;;;;;;;5157495;27;20443;-35
2021/03/08 06:33:16;;;;;;;104.73;39.47;;;;;;;;;;5157316;27;20193;-37
2021/03/08 06:36:05;;;;;;;130.13;43.33;;;;;;;;;;5161187;27;20322;-33
2021/03/08 06:38:58;;;;;;;100.40;39.83;;;;;;;;;;5162069;27;20621;-34
2021/03/08 06:41:45;;;;;;;98.47;39.80;;;;;;;;;;5160860;27;20438;-35
2021/03/08 06:44:31;;;;;;;111.20;41.17;;;;;;;;;;5145784;27;20229;-35
2021/03/08 06:47:18;;;;;;;115.83;42.37;;;;;;;;;;5140638;27;20641;-32
2021/03/08 06:50:04;;;;;;;107.63;40.43;;;;;;;;;;5140869;27;20197;-40
2021/03/08 06:52:50;;;;;;;117.47;40.43;;;;;;;;;;5141405;27;20299;-40
2021/03/08 06:55:36;;;;;;;141.77;45.23;;;;;;;;;;5140581;27;20422;-39
2021/03/08 06:58:25;;;;;;;118.57;41.63;;;;;;;;;;5140724;27;20206;-36
2021/03/08 07:01:29;;;;;;;144.67;46.30;;;;;;;;;;5140969;27;20198;-39
2021/03/08 07:04:32;;;;;;;124.53;41.67;;;;;;;;;;5140847;27;20363;-39
2021/03/08 07:07:17;;;;;;;116.63;41.07;;;;;;;;;;5140376;27;20192;-37
2021/03/08 07:10:03;;;;;;;145.27;47.07;;;;;;;;;;5140633;27;20601;-38
2021/03/08 07:12:49;;;;;;;128.83;44.20;;;;;;;;;;5139841;27;20237;-36
2021/03/08 07:15:53;;;;;;;122.17;42.83;;;;;;;;;;5139577;27;20610;-38
2021/03/08 07:18:42;;;;;;;158.93;46.30;;;;;;;;;;5139579;27;20552;-40
2021/03/08 07:21:28;;;;;;;128.23;43.60;;;;;;;;;;5139420;27;20476;-38
2021/03/08 07:24:15;;;;;;;117.07;42.50;;;;;;;;;;5139151;27;20221;-38
2021/03/08 07:27:01;;;;;;;137.70;44.27;;;;;;;;;;5140143;27;20210;-37
2021/03/08 07:30:04;;;;;;;119.00;42.47;;;;;;;;;;5140332;27;20201;-37
2021/03/08 07:32:55;;;;;;;151.60;47.07;;;;;;;;;;5139501;27;20204;-37
2021/03/08 07:35:42;;;;;;;123.20;37.47;;;;;;;;;;5139551;27;20213;-36
2021/03/08 07:38:29;;;;;;;94.47;26.70;;;;;;;;;;5140440;27;20259;-40
2021/03/08 07:41:15;;;;;;;91.33;27.33;;;;;;;;;;5139832;27;20383;-36
2021/03/08 07:44:06;;;;;;;96.10;26.67;;;;;;;;;;5139965;27;20480;-33
2021/03/08 07:46:56;;;;;;;77.30;24.07;;;;;;;;;;5139006;27;20472;-34
2021/03/08 07:49:42;;;;;;;83.13;23.93;;;;;;;;;;5139251;27;20197;-36
2021/03/08 07:52:32;;;;;;;96.40;26.53;;;;;;;;;;5138892;27;20451;-35
2021/03/08 07:55:18;;;;;;;81.70;20.67;;;;;;;;;;5139268;27;20602;-37
2021/03/08 07:58:04;;;;;;;53.43;16.20;;;;;;;;;;5138344;27;20221;-39
2021/03/08 08:00:49;;;;;;;37.40;15.33;;;;;;;;;;5138445;27;20217;-36
2021/03/08 08:03:36;;;;;;;33.87;13.03;;;;;;;;;;5138513;27;20851;-37
2021/03/08 08:06:26;;;;;;;34.27;12.03;;;;;;;;;;5138918;27;20451;-34
2021/03/08 08:09:12;;;;;;;24.00;11.43;;;;;;;;;;5138396;27;20440;-40
2021/03/08 08:11:58;;;;;;;33.70;11.83;;;;;;;;;;5143681;27;20283;-36
2021/03/08 08:14:44;;;;;;;31.80;11.90;;;;;;;;;;5159698;27;20233;-39
2021/03/08 08:17:30;;;;;;;30.77;12.40;;;;;;;;;;5159807;27;20200;-38
2021/03/08 08:20:22;;;;;;;39.53;13.13;;;;;;;;;;5160235;27;20488;-37
2021/03/08 08:23:09;;;;;;;32.33;13.03;;;;;;;;;;5160094;27;20306;-41
2021/03/08 08:25:56;;;;;;;37.07;12.83;;;;;;;;;;5159705;27;20270;-40
2021/03/08 08:28:46;;;;;;;36.80;12.13;;;;;;;;;;5159830;27;20476;-36
2021/03/08 08:31:50;;;;;;;31.73;12.10;;;;;;;;;;5158048;27;20204;-38
2021/03/08 08:34:37;;;;;;;44.10;11.40;;;;;;;;;;5158766;27;20189;-41
2021/03/08 08:37:24;;;;;;;31.97;10.93;;;;;;;;;;5158742;27;20193;-40
2021/03/08 08:40:17;;;;;;;32.10;11.37;;;;;;;;;;5158884;27;20205;-39
2021/03/08 08:43:19;;;;;;;34.80;12.73;;;;;;;;;;5158543;27;20338;-38
2021/03/08 08:46:21;;;;;;;28.13;10.17;;;;;;;;;;5158725;27;20224;-39
2021/03/08 08:49:09;;;;;;;28.53;10.43;;;;;;;;;;5159064;27;20200;-37
2021/03/08 08:51:57;;;;;;;32.47;10.10;;;;;;;;;;5158605;27;20208;-37
2021/03/08 08:54:55;;;;;;;25.23;10.17;;;;;;;;;;5158166;27;20185;-38
2021/03/08 08:58:01;;;;;;;24.30;10.13;;;;;;;;;;5157257;27;20542;-41
2021/03/08 09:01:05;;;;;;;24.03;9.73;;;;;;;;;;5159063;27;20196;-39
2021/03/08 09:03:52;;;;;;;26.43;9.33;;;;;;;;;;5158741;27;20196;-41
2021/03/08 09:06:44;;;;;;;20.83;9.23;;;;;;;;;;5154671;27;20355;-36
2021/03/08 09:09:48;;;;;;;28.50;10.10;;;;;;;;;;5158827;27;20197;-38
2021/03/08 09:13:07;;;;;;;24.93;10.00;;;;;;;;;;5137487;27;20648;-39
2021/03/08 09:16:16;;;;;;;25.97;10.13;;;;;;;;;;5138458;27;20483;-40
2021/03/08 09:19:17;;;;;;;24.57;10.73;;;;;;;;;;5137518;27;20294;-38
2021/03/08 09:22:21;;;;;;;28.50;10.40;;;;;;;;;;5137814;27;20200;-41
2021/03/08 09:25:13;;;;;;;22.43;9.63;;;;;;;;;;5140389;27;20699;-39
2021/03/08 09:28:05;;;;;;;23.53;9.50;;;;;;;;;;5158855;27;20197;-40
2021/03/08 09:30:50;;;;;;;25.17;9.20;;;;;;;;;;5158781;27;20197;-40
2021/03/08 09:33:37;;;;;;;23.57;8.63;;;;;;;;;;5158374;27;20196;-40
2021/03/08 09:36:37;;;;;;;23.90;8.47;;;;;;;;;;5158361;27;20189;-39
2021/03/08 09:39:25;;;;;;;18.80;7.77;;;;;;;;;;5156066;27;20253;-42
2021/03/08 09:42:12;;;;;;;21.63;9.50;;;;;;;;;;5139666;27;20492;-41
2021/03/08 09:44:59;;;;;;;21.80;8.97;;;;;;;;;;5136997;27;20236;-39
2021/03/08 09:47:45;;;;;;;20.23;9.03;;;;;;;;;;5136769;27;20246;-39
2021/03/08 09:50:51;;;;;;;27.43;10.37;;;;;;;;;;5135556;27;20197;-39
2021/03/08 09:53:43;;;;;;;22.70;9.90;;;;;;;;;;5135508;27;20217;-38
2021/03/08 09:56:29;;;;;;;26.20;11.00;;;;;;;;;;5136044;27;20314;-40
2021/03/08 09:59:15;;;;;;;21.47;9.33;;;;;;;;;;5135566;27;20196;-40
2021/03/08 10:02:01;;;;;;;14.93;8.27;;;;;;;;;;5136412;27;20205;-38
2021/03/08 10:04:53;;;;;;;18.70;9.97;;;;;;;;;;5137021;27;20496;-38
2021/03/08 10:07:51;;;;;;;21.50;10.17;;;;;;;;;;5137237;27;20331;-38
2021/03/08 10:10:40;;;;;;;24.77;10.70;;;;;;;;;;5137304;27;20197;-37
2021/03/08 10:13:29;;;;;;;20.10;9.33;;;;;;;;;;5155276;27;20236;-39
2021/03/08 10:16:24;;;;;;;24.10;10.50;;;;;;;;;;5157442;27;20720;-39
2021/03/08 10:19:14;;;;;;;25.93;10.63;;;;;;;;;;5157449;27;20208;-37
2021/03/08 10:22:00;;;;;;;19.17;8.00;;;;;;;;;;5157813;27;20209;-38
2021/03/08 10:24:50;;;;;;;20.27;9.73;;;;;;;;;;5157847;27;20220;-40
2021/03/08 10:27:39;;;;;;;23.17;10.93;;;;;;;;;;5142482;27;20203;-36
2021/03/08 10:30:25;;;;;;;25.17;12.77;;;;;;;;;;5156228;27;20199;-39
2021/03/08 10:33:12;;;;;;;24.33;11.47;;;;;;;;;;5146837;27;20716;-37
2021/03/08 10:36:00;;;;;;;27.03;11.87;;;;;;;;;;5138435;27;20201;-41
2021/03/08 10:38:54;;;;;;;26.80;12.13;;;;;;;;;;5146374;27;20212;-36
2021/03/08 10:41:41;;;;;;;27.80;12.97;;;;;;;;;;5145521;27;20592;-37
2021/03/08 10:44:27;;;;;;;27.10;14.20;;;;;;;;;;5147168;27;20204;-37
2021/03/08 10:47:13;;;;;;;30.80;13.53;;;;;;;;;;5154613;27;20479;-34
2021/03/08 10:50:00;;;;;;;28.03;13.10;;;;;;;;;;5157202;27;20200;-40
2021/03/08 10:53:01;;;;;;;29.90;12.17;;;;;;;;;;5157656;27;20776;-38
2021/03/08 10:55:49;;;;;;;28.30;11.43;;;;;;;;;;5157174;27;20611;-39
2021/03/08 10:58:37;;;;;;;25.43;11.37;;;;;;;;;;5157446;27;20264;-39
2021/03/08 11:01:23;;;;;;;25.27;10.63;;;;;;;;;;5157025;27;20205;-40
2021/03/08 11:04:23;;;;;;;24.97;10.20;;;;;;;;;;5157249;27;20468;-36
2021/03/08 11:07:09;;;;;;;26.90;12.70;;;;;;;;;;5156124;27;20195;-39
2021/03/08 11:09:57;;;;;;;32.43;12.93;;;;;;;;;;5157034;27;20207;-38
2021/03/08 11:12:44;;;;;;;29.07;13.13;;;;;;;;;;5155827;27;20221;-40
2021/03/08 11:15:30;;;;;;;30.40;12.43;;;;;;;;;;5156051;27;20198;-39
2021/03/08 11:18:23;;;;;;;31.60;12.00;;;;;;;;;;5157734;27;20217;-38
2021/03/08 11:21:18;;;;;;;20.77;10.63;;;;;;;;;;5158856;27;20200;-38
2021/03/08 11:24:15;;;;;;;28.10;12.00;;;;;;;;;;5161374;27;20336;-38
2021/03/08 11:27:08;;;;;;;26.07;11.07;;;;;;;;;;5161011;27;20475;-38
2021/03/08 11:30:03;;;;;;;26.07;11.70;;;;;;;;;;5160895;27;20231;-35
2021/03/08 11:32:52;;;;;;;24.07;10.63;;;;;;;;;;5160791;27;20205;-39
2021/03/08 11:35:39;;;;;;;22.63;10.23;;;;;;;;;;5161042;27;20252;-41
2021/03/08 11:38:28;;;;;;;16.23;8.30;;;;;;;;;;5156701;27;20487;-40
2021/03/08 11:41:14;;;;;;;20.70;8.00;;;;;;;;;;5140104;27;20208;-38
2021/03/08 11:44:03;;;;;;;16.07;7.50;;;;;;;;;;5139997;27;20306;-38
2021/03/08 11:46:49;;;;;;;21.00;9.43;;;;;;;;;;5139600;27;20628;-37
2021/03/08 11:49:36;;;;;;;27.67;11.23;;;;;;;;;;5157173;27;20203;-40
2021/03/08 11:52:22;;;;;;;25.43;12.93;;;;;;;;;;5160951;27;20214;-40
2021/03/08 11:55:08;;;;;;;29.57;13.10;;;;;;;;;;5160742;27;20298;-37
2021/03/08 11:57:54;;;;;;;35.57;13.27;;;;;;;;;;5159729;27;20210;-35
2021/03/08 12:00:40;;;;;;;27.53;11.90;;;;;;;;;;5159293;27;20198;-32
2021/03/08 12:03:27;;;;;;;24.73;11.73;;;;;;;;;;5158901;27;20332;-40
2021/03/08 12:06:14;;;;;;;28.50;12.07;;;;;;;;;;5159649;27;20371;-37
2021/03/08 12:09:10;;;;;;;27.40;11.00;;;;;;;;;;5160328;27;20201;-36
2021/03/08 12:11:57;;;;;;;24.50;11.07;;;;;;;;;;5159993;27;20196;-38
2021/03/08 12:14:44;;;;;;;22.17;10.50;;;;;;;;;;5160489;27;20245;-37
2021/03/08 12:17:30;;;;;;;26.13;11.47;;;;;;;;;;5160147;27;20197;-33
2021/03/08 12:20:21;;;;;;;20.63;9.33;;;;;;;;;;5160331;27;20250;-38
2021/03/08 12:23:07;;;;;;;21.43;10.00;;;;;;;;;;5160380;27;20204;-40
2021/03/08 12:25:52;;;;;;;20.33;9.07;;;;;;;;;;5160218;27;20221;-38
2021/03/08 12:28:38;;;;;;;26.27;10.33;;;;;;;;;;5160145;27;20511;-39
2021/03/08 12:31:33;;;;;;;16.57;9.80;;;;;;;;;;5158904;27;20614;-38
2021/03/08 12:34:19;;;;;;;24.87;11.80;;;;;;;;;;5159734;27;20473;-37
2021/03/08 12:37:09;;;;;;;18.83;9.83;;;;;;;;;;5139565;27;20295;-34
2021/03/08 12:39:55;;;;;;;18.60;9.47;;;;;;;;;;5159614;27;20584;-36
2021/03/08 12:42:40;;;;;;;24.00;13.30;;;;;;;;;;5159344;27;20192;-34
2021/03/08 12:45:30;;;;;;;18.80;9.37;;;;;;;;;;5158669;27;20220;-38
2021/03/08 12:48:16;;;;;;;14.07;8.10;;;;;;;;;;5158994;27;20363;-36
2021/03/08 12:51:02;;;;;;;20.30;8.90;;;;;;;;;;5159085;27;20340;-36
2021/03/08 12:53:52;;;;;;;18.73;8.67;;;;;;;;;;5158533;27;20201;-38
2021/03/08 12:56:41;;;;;;;21.77;9.90;;;;;;;;;;5159386;27;20273;-39
2021/03/08 12:59:26;;;;;;;19.80;8.10;;;;;;;;;;5158571;27;20246;-38
2021/03/08 13:02:20;;;;;;;19.30;7.50;;;;;;;;;;5159333;27;20579;-41
2021/03/08 13:05:07;;;;;;;15.57;7.37;;;;;;;;;;5158949;27;20277;-36
2021/03/08 13:07:57;;;;;;;13.43;6.50;;;;;;;;;;5141665;27;20205;-34
2021/03/08 13:10:48;;;;;;;18.67;7.20;;;;;;;;;;5158717;27;20204;-35
2021/03/08 13:13:34;;;;;;;13.43;6.40;;;;;;;;;;5159309;27;20332;-34
2021/03/08 13:16:20;;;;;;;13.17;6.73;;;;;;;;;;5158831;27;20299;-37
2021/03/08 13:19:07;;;;;;;14.80;8.07;;;;;;;;;;5159135;27;20196;-38
2021/03/08 13:21:53;;;;;;;12.83;6.80;;;;;;;;;;5159252;27;20203;-36
2021/03/08 13:24:39;;;;;;;19.07;7.43;;;;;;;;;;5158426;27;20338;-35
2021/03/08 13:27:27;;;;;;;14.13;7.20;;;;;;;;;;5158496;27;20225;-40
2021/03/08 13:30:14;;;;;;;18.83;7.83;;;;;;;;;;5158546;27;20202;-37
2021/03/08 13:33:02;;;;;;;18.33;8.23;;;;;;;;;;5158642;27;20192;-38
2021/03/08 13:35:48;;;;;;;15.27;7.30;;;;;;;;;;5158408;27;20196;-37
2021/03/08 13:38:34;;;;;;;19.93;8.30;;;;;;;;;;5158298;27;20473;-36
2021/03/08 13:41:20;;;;;;;20.33;9.00;;;;;;;;;;5158159;27;20200;-37
2021/03/08 13:44:07;;;;;;;15.93;8.13;;;;;;;;;;5157781;27;20281;-36
2021/03/08 13:46:53;;;;;;;15.20;7.73;;;;;;;;;;5158188;27;20259;-37
2021/03/08 13:49:39;;;;;;;15.00;8.53;;;;;;;;;;5158405;27;20228;-38
2021/03/08 13:52:24;;;;;;;15.57;7.50;;;;;;;;;;5158174;27;20319;-38
2021/03/08 13:55:12;;;;;;;21.87;9.37;;;;;;;;;;5157931;27;20287;-38
2021/03/08 13:58:01;;;;;;;16.97;7.60;;;;;;;;;;5158236;27;20214;-39
2021/03/08 14:00:49;;;;;;;15.67;7.20;;;;;;;;;;5158056;27;20203;-41
2021/03/08 14:03:35;;;;;;;13.87;7.40;;;;;;;;;;5157530;27;20205;-39
2021/03/08 14:06:22;;;;;;;15.13;8.23;;;;;;;;;;5157541;27;20224;-40
2021/03/08 14:09:07;;;;;;;18.63;8.60;;;;;;;;;;5158033;27;20484;-36
2021/03/08 14:11:53;;;;;;;17.77;8.23;;;;;;;;;;5157975;27;20198;-40
2021/03/08 14:14:39;;;;;;;14.37;7.30;;;;;;;;;;5156834;27;20334;-39
2021/03/08 14:17:35;;;;;;;17.10;8.50;;;;;;;;;;5157187;27;20370;-39
2021/03/08 14:20:22;;;;;;;15.33;7.77;;;;;;;;;;5156278;27;20193;-38
2021/03/08 14:23:09;;;;;;;16.30;8.20;;;;;;;;;;5157539;27;20202;-41
2021/03/08 14:25:59;;;;;;;15.30;9.30;;;;;;;;;;5138989;27;20234;-42
2021/03/08 14:28:51;;;;;;;16.93;9.27;;;;;;;;;;5145928;27;20250;-36
2021/03/08 14:31:40;;;;;;;16.80;8.63;;;;;;;;;;5158437;27;20260;-38
2021/03/08 14:34:28;;;;;;;17.70;9.87;;;;;;;;;;5157513;27;20257;-35
2021/03/08 14:37:13;;;;;;;17.63;9.47;;;;;;;;;;5145649;27;20230;-37
2021/03/08 14:40:00;;;;;;;17.87;9.17;;;;;;;;;;5137824;28;20199;-37
2021/03/08 14:42:46;;;;;;;16.57;9.50;;;;;;;;;;5137284;28;20200;-36
2021/03/08 14:45:31;;;;;;;18.97;9.47;;;;;;;;;;5144751;27;20222;-33
2021/03/08 14:48:20;;;;;;;18.37;8.47;;;;;;;;;;5147569;27;20656;-38
2021/03/08 14:51:10;;;;;;;16.63;8.87;;;;;;;;;;5136835;28;20215;-38
2021/03/08 14:53:55;;;;;;;13.97;9.03;;;;;;;;;;5136758;28;20204;-38
2021/03/08 14:56:41;;;;;;;15.17;9.33;;;;;;;;;;5139437;27;20466;-41
2021/03/08 14:59:27;;;;;;;17.03;8.50;;;;;;;;;;5141605;27;20204;-40
2021/03/08 15:02:12;;;;;;;17.77;10.43;;;;;;;;;;5140901;27;20667;-40
2021/03/08 15:05:00;;;;;;;17.57;9.93;;;;;;;;;;5140798;27;20201;-41
2021/03/08 15:07:48;;;;;;;17.07;9.33;;;;;;;;;;5141363;27;20489;-38
2021/03/08 15:10:35;;;;;;;18.70;9.70;;;;;;;;;;5140890;27;20194;-41
2021/03/08 15:13:21;;;;;;;14.20;8.80;;;;;;;;;;5140500;27;20228;-40
2021/03/08 15:16:07;;;;;;;19.10;9.93;;;;;;;;;;5139907;27;20259;-33
2021/03/08 15:18:53;;;;;;;21.13;11.93;;;;;;;;;;5140494;27;20332;-35
2021/03/08 15:21:39;;;;;;;27.47;14.47;;;;;;;;;;5139702;27;20590;-35
2021/03/08 15:24:32;;;;;;;26.00;15.30;;;;;;;;;;5150585;27;20198;-34
2021/03/08 15:27:19;;;;;;;33.73;18.07;;;;;;;;;;5161404;27;20382;-34
2021/03/08 15:30:05;;;;;;;43.10;20.50;;;;;;;;;;5161659;27;20204;-34
2021/03/08 15:32:54;;;;;;;32.93;17.00;;;;;;;;;;5161684;27;20259;-33
2021/03/08 15:35:40;;;;;;;35.60;19.43;;;;;;;;;;5161327;27;20481;-32
2021/03/08 15:38:26;;;;;;;38.43;21.30;;;;;;;;;;5160630;27;20206;-35
2021/03/08 15:41:30;;;;;;;36.30;19.77;;;;;;;;;;5161021;27;20218;-36
2021/03/08 15:44:16;;;;;;;30.43;17.37;;;;;;;;;;5156861;27;20287;-37
2021/03/08 15:47:03;;;;;;;38.13;19.50;;;;;;;;;;5140019;27;20646;-37
2021/03/08 15:50:08;;;;;;;32.20;19.03;;;;;;;;;;5140268;27;20298;-33
2021/03/08 15:52:55;;;;;;;40.93;21.70;;;;;;;;;;5139706;27;20198;-36
2021/03/08 15:55:41;;;;;;;40.63;23.70;;;;;;;;;;5139186;27;20307;-33
2021/03/08 15:58:30;;;;;;;42.00;23.60;;;;;;;;;;5138146;27;20533;-35
2021/03/08 16:01:15;;;;;;;41.90;22.23;;;;;;;;;;5139541;27;20198;-35
2021/03/08 16:04:02;;;;;;;41.60;21.63;;;;;;;;;;5139534;27;20498;-34
2021/03/08 16:06:47;;;;;;;42.70;22.33;;;;;;;;;;5138901;27;20632;-36
2021/03/08 16:09:33;;;;;;;41.77;23.40;;;;;;;;;;5138582;27;20400;-35
2021/03/08 16:12:20;;;;;;;37.33;21.00;;;;;;;;;;5139262;27;20329;-36
2021/03/08 16:15:08;;;;;;;35.93;19.50;;;;;;;;;;5138367;27;20463;-33
2021/03/08 16:18:17;;;;;;;35.93;20.33;;;;;;;;;;5158051;27;20665;-34
2021/03/08 16:21:03;;;;;;;39.33;21.37;;;;;;;;;;5160261;27;20209;-39
2021/03/08 16:23:49;;;;;;;36.07;20.80;;;;;;;;;;5159207;27;20201;-38